Currently 58°F in Perris, California, USA
58°F
72°F / 58°F
2 mph SE
0.06"
Friday, November 17, 2017 8:42 PM PST

Perris, California Weather Summary
Last 36 Hours

Temperature Winds Hourly Humidity Dewpoint
Time Report Norm Report Norm Max Gusts Precip. Rpt. Norm Rpt. Norm Pressure
1Fri 08:42 PM  58.3°F  60°F  2 mph SE  2 mph  4 mph  0.00"  90%  54%  55°F  43°F  N/A
Fri 08:00 PM  59.8°F  61°F  calm  2 mph  none  0.00"  88%  52%  56°F  43°F  N/A
Fri 07:00 PM  61.3°F  62°F  calm  3 mph  4 mph  0.00"  88%  49%  57°F  42°F  N/A
Fri 06:00 PM  63.4°F  64°F  calm  3 mph  3 mph  0.00"  79%  45%  57°F  42°F  N/A
Fri 05:00 PM  66.5°F  66°F  calm  3 mph  6 mph  0.00"  67%  41%  55°F  41°F  N/A
Fri 04:00 PM  68.5°F  70°F  3 mph S  4 mph  10 mph  0.00"  63%  35%  55°F  40°F  N/A
Fri 03:00 PM  69.5°F  72°F  4 mph SW  4 mph  9 mph  0.00"  60%  32%  55°F  39°F  N/A
Fri 02:00 PM  69.7°F  73°F  2 mph SW  4 mph  7 mph  0.01"  58%  30%  54°F  38°F  N/A
2Fri 01:24 PM  71.8°F  73°F  2 mph S  4 mph  6 mph  ----  55%  31%  54°F  39°F  N/A
Fri 01:00 PM  69.9°F  72°F  1 mph NE  4 mph  6 mph  0.00"  58%  31%  54°F  39°F  N/A
Fri 12:00 PM  66.6°F  71°F  2 mph S  3 mph  6 mph  0.00"  64%  33%  54°F  40°F  N/A
Fri 11:00 AM  65.4°F  68°F  2 mph W  3 mph  5 mph  0.00"  78%  39%  58°F  42°F  N/A
Fri 10:00 AM  59.4°F  64°F  3 mph E  2 mph  7 mph  0.00"  92%  47%  57°F  43°F  N/A
Fri 09:00 AM  58.0°F  59°F  calm  2 mph  7 mph  0.01"  92%  57%  56°F  43°F  N/A
Fri 08:00 AM  58.3°F  53°F  2 mph S  2 mph  5 mph  0.01"  89%  65%  55°F  41°F  N/A
3Fri 07:31 AM  57.8°F  51°F  calm  1 mph  2 mph  ----  90%  67%  55°F  40°F  N/A
Fri 07:00 AM  57.9°F  49°F  2 mph SE  1 mph  6 mph  0.00"  90%  69%  55°F  39°F  N/A
Fri 06:00 AM  59.6°F  50°F  3 mph E  1 mph  8 mph  0.00"  78%  68%  53°F  39°F  N/A
Fri 05:00 AM  58.9°F  50°F  2 mph E  1 mph  8 mph  0.01"  82%  67%  53°F  39°F  N/A
Fri 04:00 AM  59.4°F  50°F  4 mph NE  1 mph  8 mph  0.02"  82%  67%  54°F  40°F  N/A
Fri 03:00 AM  60.7°F  52°F  calm  1 mph  none  0.00"  67%  65%  49°F  40°F  N/A
Fri 02:00 AM  63.3°F  52°F  calm  1 mph  none  0.00"  61%  64%  49°F  40°F  N/A
Fri 01:00 AM  63.2°F  54°F  calm  1 mph  none  0.00"  63%  62%  50°F  41°F  N/A
Fri 12:00 AM  63.0°F  56°F  calm  1 mph  2 mph  0.00"  65%  60%  51°F  42°F  N/A
Thu 11:00 PM  64.2°F  57°F  calm  1 mph  2 mph  0.00"  64%  58%  51°F  42°F  N/A
Thu 10:00 PM  67.1°F  59°F  1 mph E  1 mph  5 mph  0.00"  53%  56%  49°F  42°F  N/A
Thu 09:00 PM  67.8°F  60°F  calm  2 mph  8 mph  0.00"  54%  53%  50°F  42°F  N/A
Thu 08:00 PM  67.8°F  61°F  5 mph W  2 mph  10 mph  0.00"  56%  51%  51°F  42°F  N/A
Thu 07:00 PM  69.4°F  63°F  4 mph NE  3 mph  9 mph  0.00"  53%  48%  51°F  42°F  N/A
Thu 06:00 PM  70.6°F  64°F  5 mph NW  3 mph  8 mph  0.00"  47%  44%  49°F  41°F  N/A
Thu 05:00 PM  72.4°F  67°F  4 mph NW  4 mph  8 mph  0.00"  45%  40%  49°F  40°F  N/A
Thu 04:00 PM  74.5°F  70°F  3 mph W  4 mph  7 mph  0.00"  41%  34%  48°F  39°F  N/A
Thu 03:00 PM  75.5°F  72°F  3 mph W  4 mph  9 mph  0.00"  40%  31%  48°F  38°F  N/A
Thu 02:00 PM  76.4°F  73°F  3 mph NW  4 mph  13 mph  0.00"  39%  29%  48°F  38°F  N/A
Thu 01:00 PM  77.4°F  72°F  7 mph NW  4 mph  8 mph  0.00"  37%  30%  48°F  38°F  N/A
Thu 12:00 PM  77.0°F  71°F  calm  3 mph  4 mph  0.00"  37%  33%  48°F  39°F  N/A
Thu 11:00 AM  75.7°F  69°F  calm  3 mph  2 mph  0.00"  37%  38%  47°F  41°F  N/A
Thu 10:00 AM  69.1°F  65°F  calm  2 mph  2 mph  0.00"  45%  46%  46°F  42°F  N/A
Thu 09:00 AM  59.9°F  59°F  calm  2 mph  none  0.00"  58%  56%  45°F  43°F  N/A

  1. Current weather data. No green row appears if the current weather data is also the high or low for the current day.
  2. High temperature for the current day.
  3. Low temperature for the current day.

The Perris, California weather pages are a service of WeatherCurrents. Perris is located in Southern California's Inland Empire, south of Riverside and north of Sun City, along the Interstate 215 freeway.
Copyright ©Fri Nov 17 20:43:11 PST 2017  WeatherCurrents. All rights reserved. - Submit questions and comments - Privacy Policy

This page automatically refreshes every 10 minutes.